createdAt,value
2023-04-04T00:01:27.401Z,96565.44
2023-04-04T00:06:52.426Z,96557.31
2023-04-04T00:12:16.477Z,96550.63
2023-04-04T00:17:38.350Z,96547.19
2023-04-04T00:23:00.650Z,96545.63
2023-04-04T00:28:23.384Z,96541.31
2023-04-04T00:33:45.606Z,96530.84
2023-04-04T00:39:07.643Z,96528.34
2023-04-04T00:44:29.374Z,96528.66
2023-04-04T00:49:52.398Z,96522.69
2023-04-04T00:55:14.358Z,96517.31
2023-04-04T01:00:36.283Z,96519.78
2023-04-04T01:05:58.353Z,96519.38
2023-04-04T01:11:22.409Z,96515.63
2023-04-04T01:16:44.508Z,96514.72
2023-04-04T01:22:10.634Z,96509.84
2023-04-04T01:27:33.383Z,96495.72
2023-04-04T01:33:06.468Z,96498.16
2023-04-04T01:38:44.351Z,96487.41
2023-04-04T01:44:06.342Z,96480.28
2023-04-04T01:49:31.342Z,96484.75
2023-04-04T01:54:53.327Z,96478.75
2023-04-04T02:00:16.628Z,96485.84
2023-04-04T02:05:38.312Z,96480.38
2023-04-04T02:11:00.591Z,96482.78
2023-04-04T02:16:22.371Z,96476.91
2023-04-04T02:21:44.301Z,96481.72
2023-04-04T02:27:06.581Z,96478.44
2023-04-04T02:32:28.586Z,96484.84
2023-04-04T02:37:51.618Z,96482.66
2023-04-04T02:43:22.302Z,96476.00
2023-04-04T02:48:45.607Z,96470.47
2023-04-04T02:54:14.301Z,96482.72
2023-04-04T02:59:36.320Z,96483.53
2023-04-04T03:04:58.322Z,96477.66
2023-04-04T03:10:20.600Z,96487.31
2023-04-04T03:15:42.568Z,96478.75
2023-04-04T03:21:05.300Z,96483.53
2023-04-04T03:26:27.612Z,96477.97
2023-04-04T03:31:49.660Z,96472.78
2023-04-04T03:37:11.278Z,96471.81
2023-04-04T03:42:36.256Z,96469.44
2023-04-04T03:48:02.333Z,96470.91
2023-04-04T03:53:33.285Z,96466.31
2023-04-04T03:58:55.330Z,96471.22
2023-04-04T04:04:17.389Z,96473.13
2023-04-04T04:10:04.354Z,96476.91
2023-04-04T04:15:27.569Z,96466.91
2023-04-04T04:20:52.566Z,96479.56
2023-04-04T04:26:15.605Z,96481.63
2023-04-04T04:31:37.312Z,96478.94
2023-04-04T04:37:00.718Z,96486.88
2023-04-04T04:42:36.508Z,96482.59
2023-04-04T04:47:58.314Z,96470.09
2023-04-04T04:53:29.538Z,96478.81
2023-04-04T04:58:54.664Z,96487.03
2023-04-04T05:04:16.570Z,96481.50
2023-04-04T05:09:53.517Z,96478.00
2023-04-04T05:15:15.468Z,96480.22
2023-04-04T05:20:40.671Z,96485.78
2023-04-04T05:26:03.320Z,96486.13
2023-04-04T05:31:28.552Z,96494.19
2023-04-04T05:36:55.253Z,96491.50
2023-04-04T05:42:19.247Z,96501.16
2023-04-04T05:47:45.277Z,96498.13
2023-04-04T05:53:16.242Z,96495.44
2023-04-04T05:58:40.248Z,96498.44
2023-04-04T06:04:04.550Z,96495.72
2023-04-04T06:09:26.231Z,96505.06
2023-04-04T06:14:51.246Z,96503.91
2023-04-04T06:20:14.250Z,96495.81
2023-04-04T06:25:37.162Z,96492.41
2023-04-04T06:30:59.284Z,96492.41
2023-04-04T06:36:22.501Z,96499.66
2023-04-04T06:41:46.226Z,96498.50
2023-04-04T06:47:13.546Z,96506.25
2023-04-04T06:52:39.056Z,96505.41
2023-04-04T06:58:01.459Z,96502.66
2023-04-04T07:03:23.313Z,96500.69
2023-04-04T07:08:45.262Z,96515.41
2023-04-04T07:14:07.223Z,96519.19
2023-04-04T07:19:35.145Z,96519.00
2023-04-04T07:24:57.219Z,96519.13
2023-04-04T07:30:21.609Z,96515.25
2023-04-04T07:35:43.200Z,96517.53
2023-04-04T07:41:06.239Z,96522.09
2023-04-04T07:46:28.469Z,96516.16
2023-04-04T07:51:50.242Z,96516.75
2023-04-04T07:57:12.180Z,96509.56
2023-04-04T08:02:34.240Z,96518.25
2023-04-04T08:07:56.202Z,96519.75
2023-04-04T08:13:18.541Z,96515.97
2023-04-04T08:18:40.188Z,96509.84
2023-04-04T08:24:04.449Z,96514.25
2023-04-04T08:29:26.118Z,96506.78
2023-04-04T08:34:48.429Z,96514.47
2023-04-04T08:40:11.226Z,96523.38
2023-04-04T08:45:35.193Z,96508.13
2023-04-04T08:50:58.247Z,96510.84
2023-04-04T08:56:20.164Z,96509.25
2023-04-04T09:01:43.140Z,96509.72
2023-04-04T09:07:05.240Z,96504.44
2023-04-04T09:12:29.199Z,96505.69
2023-04-04T09:17:51.541Z,96496.56
2023-04-04T09:23:16.182Z,96503.78
2023-04-04T09:28:38.428Z,96497.16
2023-04-04T09:34:00.791Z,96504.72
2023-04-04T09:39:25.168Z,96496.81
2023-04-04T09:44:47.217Z,96499.09
2023-04-04T09:50:13.153Z,96503.97
2023-04-04T09:55:43.355Z,96494.13
2023-04-04T10:01:07.190Z,96503.06
2023-04-04T10:06:30.225Z,96502.13
2023-04-04T10:11:52.393Z,96502.47
2023-04-04T10:17:20.438Z,96493.78
2023-04-04T10:22:43.619Z,96492.53
2023-04-04T10:28:06.168Z,96491.53
2023-04-04T10:33:37.198Z,96491.19
2023-04-04T10:39:22.111Z,96485.56
2023-04-04T10:44:47.470Z,96483.84
2023-04-04T10:50:11.152Z,96482.06
2023-04-04T10:55:33.157Z,96480.13
2023-04-04T11:01:01.114Z,96471.88
2023-04-04T11:06:28.026Z,96471.59
2023-04-04T11:12:17.004Z,96464.78
2023-04-04T11:17:56.049Z,96459.47
2023-04-04T11:23:29.031Z,96449.50
2023-04-04T11:28:52.014Z,96437.97
2023-04-04T11:34:19.004Z,96442.97
2023-04-04T11:39:45.026Z,96432.56
2023-04-04T11:45:07.007Z,96438.97
2023-04-04T11:50:30.009Z,96434.50
2023-04-04T11:55:55.996Z,96426.78
2023-04-04T12:01:18.009Z,96417.34
2023-04-04T12:06:42.022Z,96421.44
2023-04-04T12:12:03.987Z,96421.63
2023-04-04T12:17:25.988Z,96419.22
2023-04-04T12:22:51.023Z,96418.19
2023-04-04T12:28:14.027Z,96411.19
2023-04-04T12:33:36.002Z,96404.75
2023-04-04T12:39:09.001Z,96406.09
2023-04-04T12:44:43.957Z,96410.28
2023-04-04T12:50:05.982Z,96410.19
2023-04-04T12:55:33.018Z,96404.25
2023-04-04T13:01:00.124Z,96407.56
2023-04-04T13:06:32.134Z,96398.13
2023-04-04T13:12:11.978Z,96397.47
2023-04-04T13:17:33.995Z,96402.59
2023-04-04T13:22:55.982Z,96385.06
2023-04-04T13:28:20.986Z,96377.28
2023-04-04T13:33:43.967Z,96370.59
2023-04-04T13:39:05.998Z,96370.06
2023-04-04T13:44:27.978Z,96350.44
2023-04-04T13:49:49.964Z,96366.38
2023-04-04T13:55:13.963Z,96361.78
2023-04-04T14:00:35.973Z,96363.44
2023-04-04T14:06:00.339Z,96359.75
2023-04-04T14:11:26.967Z,96358.53
2023-04-04T14:16:48.980Z,96350.13
2023-04-04T14:22:11.952Z,96351.50
2023-04-04T14:27:33.965Z,96355.56
2023-04-04T14:32:58.022Z,96356.66
2023-04-04T14:38:19.981Z,96348.50
2023-04-04T14:43:41.964Z,96351.44
2023-04-04T14:49:03.966Z,96346.03
2023-04-04T14:54:25.923Z,96354.66
2023-04-04T15:00:02.964Z,96344.13
2023-04-04T15:05:25.978Z,96343.81
2023-04-04T15:10:47.953Z,96351.75
2023-04-04T15:16:10.975Z,96342.00
2023-04-04T15:21:33.969Z,96347.09
2023-04-04T15:26:56.557Z,96336.81
2023-04-04T15:32:19.015Z,96323.28
2023-04-04T15:37:40.977Z,96322.19
2023-04-04T15:43:03.942Z,96317.69
2023-04-04T15:48:25.941Z,96319.56
2023-04-04T15:53:47.935Z,96313.72
2023-04-04T15:59:16.931Z,96315.22
2023-04-04T16:04:38.908Z,96319.75
2023-04-04T16:10:00.923Z,96317.84
2023-04-04T16:15:22.928Z,96323.03
2023-04-04T16:20:44.925Z,96314.53
2023-04-04T16:26:06.943Z,96312.88
2023-04-04T16:31:28.943Z,96304.03
2023-04-04T16:36:50.963Z,96305.75
2023-04-04T16:42:12.928Z,96304.44
2023-04-04T16:47:34.995Z,96305.03
2023-04-04T16:52:56.927Z,96303.84
2023-04-04T16:58:25.910Z,96296.00
2023-04-04T17:03:47.926Z,96288.06
2023-04-04T17:09:09.920Z,96296.06
2023-04-04T17:14:32.908Z,96285.31
2023-04-04T17:19:54.922Z,96281.41
2023-04-04T17:25:16.930Z,96292.66
2023-04-04T17:30:39.046Z,96283.84
2023-04-04T17:36:00.892Z,96280.84
2023-04-04T17:41:22.897Z,96283.75
2023-04-04T17:46:44.910Z,96289.59
2023-04-04T17:52:06.935Z,96290.03
2023-04-04T17:57:35.932Z,96284.19
2023-04-04T18:02:58.019Z,96291.19
2023-04-04T18:08:19.909Z,96289.31
2023-04-04T18:13:41.897Z,96293.34
2023-04-04T18:19:03.951Z,96293.53
2023-04-04T18:24:25.917Z,96288.53
2023-04-04T18:29:48.895Z,96279.94
2023-04-04T18:35:10.875Z,96284.22
2023-04-04T18:40:32.916Z,96289.78
2023-04-04T18:45:54.916Z,96297.25
2023-04-04T18:51:16.886Z,96300.34
2023-04-04T18:56:39.003Z,96295.66
2023-04-04T19:02:00.916Z,96299.09
2023-04-04T19:07:28.875Z,96300.94
2023-04-04T19:12:50.912Z,96308.97
2023-04-04T19:18:12.933Z,96309.06
2023-04-04T19:23:34.890Z,96309.19
2023-04-04T19:28:56.902Z,96311.03
2023-04-04T19:34:19.890Z,96312.53
2023-04-04T19:39:42.868Z,96311.19
2023-04-04T19:45:04.893Z,96305.69
2023-04-04T19:50:41.884Z,96313.44
2023-04-04T19:56:03.879Z,96314.78
2023-04-04T20:01:32.040Z,96316.47
2023-04-04T20:06:53.896Z,96313.84
2023-04-04T20:12:17.876Z,96310.88
2023-04-04T20:17:39.906Z,96302.84
2023-04-04T20:23:01.868Z,96305.91
2023-04-04T20:28:37.906Z,96305.91
2023-04-04T20:33:59.878Z,96309.38
2023-04-04T20:40:00.871Z,96305.13
2023-04-04T20:45:46.945Z,96310.78
2023-04-04T20:51:08.863Z,96309.44
2023-04-04T20:56:52.873Z,96304.19
2023-04-04T21:02:26.928Z,96318.44
2023-04-04T21:07:49.847Z,96316.06
2023-04-04T21:13:13.836Z,96317.22
2023-04-04T21:18:37.843Z,96314.31
2023-04-04T21:24:00.837Z,96318.03
2023-04-04T21:29:28.837Z,96316.72
2023-04-04T21:34:50.836Z,96324.66
2023-04-04T21:40:14.834Z,96320.72
2023-04-04T21:45:36.827Z,96332.34
2023-04-04T21:50:58.796Z,96320.63
2023-04-04T21:56:20.847Z,96326.16
2023-04-04T22:01:43.852Z,96319.72
2023-04-04T22:07:05.805Z,96322.19
2023-04-04T22:12:29.812Z,96322.63
2023-04-04T22:17:57.839Z,96327.69
2023-04-04T22:23:23.117Z,96327.94
2023-04-04T22:28:54.792Z,96320.28
2023-04-04T22:34:16.816Z,96318.34
2023-04-04T22:39:38.811Z,96314.53
2023-04-04T22:45:00.815Z,96307.97
2023-04-04T22:50:22.833Z,96312.59
2023-04-04T22:55:45.783Z,96312.94
2023-04-04T23:01:07.843Z,96309.00
2023-04-04T23:06:29.810Z,96309.34
2023-04-04T23:11:53.820Z,96305.84
2023-04-04T23:17:15.797Z,96296.38
2023-04-04T23:22:38.782Z,96291.66
2023-04-04T23:28:00.779Z,96294.16
2023-04-04T23:33:22.788Z,96300.13
2023-04-04T23:38:44.781Z,96289.91
2023-04-04T23:44:06.818Z,96288.78
2023-04-04T23:49:28.782Z,96285.84
2023-04-04T23:54:50.787Z,96285.66
